Moodys, Oklahoma
Current Conditions -  °F | °C
As of 5:55 AM on Monday 22 Dec 2014 (Local Time) from KTQH Reporting Station
Haze Haze  
Wind Chill:   Ceiling: 1300
Heat Index:   Visibility: 5mi
Dew Point:   Wind: 5mph
Humidity: 93%   Direction: 130°SE
Pressure: 29.63"   Gusts: NA
Location:  36.03°N, 94.96°W
Report Text: KTQH 221155Z AUTO 13004KT 5SM BR OVC013 07/06 A2963 RMK AO2
Loading
Personal Weather Stations






























Interactive Weather Map New forecast layout! Learn more

10-Day Weather Forecast

Advertisements
Track Severe Weather on mobile